Time;durP1;ratioP1;P1;durP2;ratioP2;P2;SDS_P1;SDS_P2;PMS_P1;PMS_P2;Temp;Humidity;BMP_temperature;BMP_pressure;BME280_temperature;BME280_humidity;BME280_pressure;Samples;Min_cycle;Max_cycle;Signal;HPM_P1;HPM_P2
2023/04/09 00:00:04;;;;;;;34.10;22.10;;;7.00;99.90;;;;;;5019521;28;20478;-80
2023/04/09 00:02:31;;;;;;;32.07;20.90;;;7.00;99.90;;;;;;5018968;28;20457;-80
2023/04/09 00:04:58;;;;;;;37.67;23.20;;;7.00;99.90;;;;;;5037467;28;21163;-81
2023/04/09 00:07:25;;;;;;;33.57;23.33;;;6.90;99.90;;;;;;5040382;28;20448;-81
2023/04/09 00:09:53;;;;;;;33.40;22.17;;;6.90;99.90;;;;;;5040399;28;20472;-80
2023/04/09 00:12:19;;;;;;;32.87;22.27;;;6.90;99.90;;;;;;5039703;28;20901;-80
2023/04/09 00:14:46;;;;;;;34.20;22.87;;;6.80;99.90;;;;;;5020191;28;20457;-82
2023/04/09 00:17:13;;;;;;;35.13;22.07;;;6.70;99.90;;;;;;5017065;28;20571;-81
2023/04/09 00:19:40;;;;;;;37.03;22.33;;;6.70;99.90;;;;;;5016344;28;20542;-83
2023/04/09 00:22:07;;;;;;;37.43;22.03;;;6.70;99.90;;;;;;5017600;28;20480;-82
2023/04/09 00:24:34;;;;;;;35.60;22.67;;;6.60;99.90;;;;;;5018063;28;20457;-81
2023/04/09 00:27:02;;;;;;;35.30;21.13;;;6.60;99.90;;;;;;5018795;28;20493;-80
2023/04/09 00:29:29;;;;;;;33.90;21.07;;;6.60;99.90;;;;;;5018352;28;20548;-81
2023/04/09 00:31:56;;;;;;;29.53;19.53;;;6.50;99.90;;;;;;5018181;28;20899;-82
2023/04/09 00:34:23;;;;;;;32.63;20.07;;;6.50;99.90;;;;;;5017494;28;20489;-82
2023/04/09 00:36:49;;;;;;;33.90;22.03;;;6.50;99.90;;;;;;5018608;28;20467;-81
2023/04/09 00:39:16;;;;;;;32.33;20.30;;;6.40;99.90;;;;;;5018006;28;20486;-82
2023/04/09 00:41:43;;;;;;;36.07;21.37;;;6.40;99.90;;;;;;5018351;28;20932;-82
2023/04/09 00:44:11;;;;;;;37.23;22.70;;;6.40;99.90;;;;;;5017632;28;20465;-82
2023/04/09 00:46:38;;;;;;;33.97;20.60;;;6.40;99.90;;;;;;5018044;28;20547;-81
2023/04/09 00:49:06;;;;;;;32.63;22.27;;;6.30;99.90;;;;;;5018493;28;21047;-82
2023/04/09 00:51:33;;;;;;;32.30;20.70;;;6.30;99.90;;;;;;5017458;28;20539;-80
2023/04/09 00:54:00;;;;;;;29.57;20.10;;;6.30;99.90;;;;;;5018541;28;20450;-80
2023/04/09 00:56:28;;;;;;;30.90;20.00;;;6.20;99.90;;;;;;5017790;28;20457;-82
2023/04/09 00:58:55;;;;;;;32.73;20.57;;;6.20;99.90;;;;;;5017733;28;20850;-82
2023/04/09 01:01:23;;;;;;;28.27;18.37;;;6.20;99.90;;;;;;5017466;28;20462;-81
2023/04/09 01:03:50;;;;;;;30.17;19.40;;;6.10;99.90;;;;;;5017792;28;20459;-81
2023/04/09 01:06:25;;;;;;;32.23;19.60;;;6.10;99.90;;;;;;5019311;28;20451;-81
2023/04/09 01:09:02;;;;;;;33.20;20.40;;;6.00;99.90;;;;;;5019358;28;20558;-80
2023/04/09 01:11:35;;;;;;;36.63;22.20;;;6.00;99.90;;;;;;5019233;28;20456;-83
2023/04/09 01:14:12;;;;;;;28.10;19.27;;;5.90;99.90;;;;;;5019772;28;20537;-82
2023/04/09 01:16:44;;;;;;;31.57;19.00;;;5.90;99.90;;;;;;5019254;28;21095;-82
2023/04/09 01:19:21;;;;;;;27.90;19.37;;;5.90;99.90;;;;;;5018213;28;20519;-82
2023/04/09 01:21:49;;;;;;;32.50;19.40;;;5.80;99.90;;;;;;5018471;28;20462;-80
2023/04/09 01:24:29;;;;;;;28.30;18.80;;;5.80;99.90;;;;;;5018421;28;20476;-81
2023/04/09 01:27:02;;;;;;;30.20;20.00;;;5.70;99.90;;;;;;5037449;28;20511;-82
2023/04/09 01:29:34;;;;;;;29.53;18.90;;;5.70;99.90;;;;;;5041436;28;20554;-82
2023/04/09 01:32:02;;;;;;;28.60;18.70;;;5.70;99.90;;;;;;5024371;28;20473;-81
2023/04/09 01:34:31;;;;;;;32.60;19.97;;;5.60;99.90;;;;;;5022189;28;20524;-81
2023/04/09 01:37:02;;;;;;;30.67;19.80;;;5.60;99.90;;;;;;5021852;28;20530;-82
2023/04/09 01:39:30;;;;;;;33.53;20.30;;;5.60;99.90;;;;;;5021510;28;20474;-81
2023/04/09 01:41:57;;;;;;;32.70;21.43;;;5.60;99.90;;;;;;5020651;28;20452;-82
2023/04/09 01:44:25;;;;;;;31.53;18.00;;;5.60;99.90;;;;;;5021589;28;20462;-80
2023/04/09 01:46:55;;;;;;;31.50;17.87;;;5.50;99.90;;;;;;5021023;28;20466;-81
2023/04/09 01:49:22;;;;;;;27.87;18.70;;;5.50;99.90;;;;;;5020867;28;20487;-81
2023/04/09 01:51:49;;;;;;;39.90;20.70;;;5.50;99.90;;;;;;5021530;28;20775;-80
2023/04/09 01:54:17;;;;;;;26.10;17.87;;;5.50;99.90;;;;;;5022902;28;20460;-79
2023/04/09 01:56:45;;;;;;;26.70;18.27;;;5.40;99.90;;;;;;5022626;28;20525;-81
2023/04/09 01:59:12;;;;;;;28.30;19.93;;;5.40;99.90;;;;;;5021746;28;20502;-79
2023/04/09 02:01:45;;;;;;;29.10;18.60;;;5.40;99.90;;;;;;5020423;28;20455;-82
2023/04/09 02:04:17;;;;;;;34.13;20.43;;;5.40;99.90;;;;;;5021921;28;20548;-79
2023/04/09 02:06:50;;;;;;;27.63;18.20;;;5.30;99.90;;;;;;5020865;28;20461;-80
2023/04/09 02:09:19;;;;;;;30.20;20.90;;;5.30;99.90;;;;;;5021519;28;20475;-81
2023/04/09 02:11:48;;;;;;;28.77;19.93;;;5.30;99.90;;;;;;5019850;28;20432;-79
2023/04/09 02:14:16;;;;;;;30.30;19.70;;;5.20;99.90;;;;;;5019643;28;20871;-79
2023/04/09 02:16:43;;;;;;;28.80;19.00;;;5.20;99.90;;;;;;5020623;28;20443;-80
2023/04/09 02:19:10;;;;;;;29.03;18.63;;;5.20;99.90;;;;;;5019357;28;20495;-80
2023/04/09 02:21:38;;;;;;;32.00;19.10;;;5.10;99.90;;;;;;5018645;28;20903;-80
2023/04/09 02:24:05;;;;;;;29.87;18.90;;;5.10;99.90;;;;;;5020089;28;20452;-80
2023/04/09 02:26:32;;;;;;;27.70;18.70;;;5.10;99.90;;;;;;5019306;28;20452;-80
2023/04/09 02:28:59;;;;;;;27.90;19.40;;;5.10;99.90;;;;;;5018658;28;20476;-80
2023/04/09 02:31:26;;;;;;;32.90;21.33;;;5.00;99.90;;;;;;5037069;28;20994;-78
2023/04/09 02:33:53;;;;;;;30.73;19.97;;;5.00;99.90;;;;;;5038758;28;20509;-81
2023/04/09 02:36:20;;;;;;;35.60;19.80;;;5.00;99.90;;;;;;5037927;28;20447;-79
2023/04/09 02:38:48;;;;;;;26.57;18.40;;;5.00;99.90;;;;;;5038216;28;20490;-80
2023/04/09 02:41:15;;;;;;;29.47;18.00;;;4.90;99.90;;;;;;5027961;28;20434;-81
2023/04/09 02:43:41;;;;;;;30.10;19.20;;;4.90;99.90;;;;;;5019371;28;20450;-80
2023/04/09 02:46:08;;;;;;;32.40;20.40;;;4.90;99.90;;;;;;5036211;28;20454;-80
2023/04/09 02:48:35;;;;;;;28.63;18.30;;;4.80;99.90;;;;;;5039253;28;20834;-80
2023/04/09 02:51:04;;;;;;;32.00;18.20;;;4.80;99.90;;;;;;5036183;28;20457;-81
2023/04/09 02:53:31;;;;;;;30.00;17.13;;;4.70;99.90;;;;;;5038870;28;20453;-80
2023/04/09 02:55:59;;;;;;;25.03;19.40;;;4.70;99.90;;;;;;5035632;28;20458;-81
2023/04/09 02:58:26;;;;;;;32.50;20.70;;;4.70;99.90;;;;;;5035930;28;20917;-80
2023/04/09 03:00:53;;;;;;;26.97;17.97;;;4.60;99.90;;;;;;5020748;28;20580;-80
2023/04/09 03:03:19;;;;;;;31.70;20.70;;;4.60;99.90;;;;;;5015711;28;20453;-80
2023/04/09 03:05:46;;;;;;;30.17;18.47;;;4.60;99.90;;;;;;5026867;28;20465;-80
2023/04/09 03:08:13;;;;;;;32.73;21.43;;;4.60;99.90;;;;;;5033482;28;20446;-79
2023/04/09 03:10:40;;;;;;;29.07;20.67;;;4.50;99.90;;;;;;5034279;28;20473;-82
2023/04/09 03:13:08;;;;;;;33.40;20.53;;;4.50;99.90;;;;;;5034584;28;20919;-80
2023/04/09 03:15:35;;;;;;;30.37;20.17;;;4.50;99.90;;;;;;5034920;28;20496;-81
2023/04/09 03:18:02;;;;;;;32.37;20.03;;;4.50;99.90;;;;;;5034766;28;20511;-79
2023/04/09 03:20:28;;;;;;;32.83;19.00;;;4.50;99.90;;;;;;5015757;28;20478;-79
2023/04/09 03:22:55;;;;;;;31.90;18.37;;;4.40;99.90;;;;;;5015002;28;20512;-81
2023/04/09 03:25:22;;;;;;;33.37;20.73;;;4.40;99.90;;;;;;5031891;28;20484;-80
2023/04/09 03:27:49;;;;;;;29.87;19.50;;;4.40;99.90;;;;;;5030378;28;20458;-80
2023/04/09 03:30:17;;;;;;;32.67;20.40;;;4.40;99.90;;;;;;5014593;28;20987;-79
2023/04/09 03:32:44;;;;;;;29.33;19.97;;;4.40;99.90;;;;;;5016674;28;20549;-81
2023/04/09 03:35:11;;;;;;;33.90;20.23;;;4.40;99.90;;;;;;5034380;28;20507;-81
2023/04/09 03:37:38;;;;;;;30.70;19.60;;;4.30;99.90;;;;;;5033486;28;20507;-79
2023/04/09 03:40:05;;;;;;;38.30;20.63;;;4.30;99.90;;;;;;5014049;28;20687;-81
2023/04/09 03:42:33;;;;;;;30.00;20.37;;;4.30;99.90;;;;;;5014304;28;20425;-80
2023/04/09 03:45:00;;;;;;;32.70;21.10;;;4.30;99.90;;;;;;5013679;28;20465;-79
2023/04/09 03:47:28;;;;;;;30.63;19.60;;;4.20;99.90;;;;;;5013159;28;20460;-79
2023/04/09 03:49:55;;;;;;;37.77;22.90;;;4.20;99.90;;;;;;5051072;22;20557;-81
2023/04/09 03:52:22;;;;;;;32.57;20.60;;;4.20;99.90;;;;;;5023637;28;20975;-81
2023/04/09 03:54:49;;;;;;;34.43;20.50;;;4.10;99.90;;;;;;5017351;28;20969;-81
2023/04/09 03:57:16;;;;;;;33.47;19.80;;;4.10;99.90;;;;;;5017683;28;20452;-81
2023/04/09 03:59:42;;;;;;;32.30;19.93;;;4.10;99.90;;;;;;5022757;28;20496;-81
2023/04/09 04:02:09;;;;;;;30.70;20.10;;;4.10;99.90;;;;;;5026333;28;20434;-82
2023/04/09 04:04:37;;;;;;;33.43;22.13;;;4.10;99.90;;;;;;5025448;28;20437;-81
2023/04/09 04:07:04;;;;;;;32.73;21.50;;;4.10;99.90;;;;;;5025466;28;20994;-82
2023/04/09 04:09:31;;;;;;;30.90;21.00;;;4.10;99.90;;;;;;5037218;28;20452;-81
2023/04/09 04:11:58;;;;;;;32.97;21.70;;;4.10;99.90;;;;;;5035976;28;20427;-81
2023/04/09 04:14:25;;;;;;;33.63;21.30;;;4.10;99.90;;;;;;5024844;28;20454;-81
2023/04/09 04:16:52;;;;;;;40.63;22.70;;;4.00;99.90;;;;;;5017971;28;20461;-81
2023/04/09 04:19:18;;;;;;;30.43;20.30;;;4.00;99.90;;;;;;5026406;28;20863;-81
2023/04/09 04:21:46;;;;;;;32.03;21.10;;;4.00;99.90;;;;;;5036738;28;20457;-82
2023/04/09 04:24:13;;;;;;;36.57;21.27;;;4.00;99.90;;;;;;5026559;28;20530;-82
2023/04/09 04:26:40;;;;;;;32.03;20.80;;;4.00;99.90;;;;;;5018031;28;20458;-81
2023/04/09 04:29:07;;;;;;;35.57;21.27;;;4.00;99.90;;;;;;5034447;28;20524;-82
2023/04/09 04:31:34;;;;;;;26.57;18.97;;;3.90;99.90;;;;;;5017571;28;20859;-81
2023/04/09 04:34:01;;;;;;;33.00;19.67;;;3.90;99.90;;;;;;5034411;28;20999;-80
2023/04/09 04:36:28;;;;;;;29.57;18.50;;;3.90;99.90;;;;;;5037861;28;20511;-79
2023/04/09 04:38:56;;;;;;;37.37;20.20;;;3.90;99.90;;;;;;5035413;28;20567;-81
2023/04/09 04:41:23;;;;;;;32.23;19.63;;;3.90;99.90;;;;;;5037381;28;20551;-82
2023/04/09 04:43:50;;;;;;;29.10;19.37;;;3.90;99.90;;;;;;5023311;28;20998;-82
2023/04/09 04:46:16;;;;;;;31.33;18.10;;;3.80;99.90;;;;;;5017801;28;20447;-81
2023/04/09 04:48:43;;;;;;;36.10;19.70;;;3.80;99.90;;;;;;5018257;28;20451;-81
2023/04/09 04:51:10;;;;;;;28.43;19.30;;;3.80;99.90;;;;;;5022363;28;20481;-82
2023/04/09 04:53:37;;;;;;;31.90;18.90;;;3.80;99.90;;;;;;5037044;28;20873;-81
2023/04/09 04:56:05;;;;;;;31.30;19.23;;;3.70;99.90;;;;;;5031329;28;20424;-81
2023/04/09 04:58:32;;;;;;;29.23;18.47;;;3.70;99.90;;;;;;5017384;28;20502;-80
2023/04/09 05:00:59;;;;;;;26.57;18.23;;;3.80;99.90;;;;;;5021028;28;20472;-80
2023/04/09 05:03:26;;;;;;;30.60;18.80;;;3.80;99.90;;;;;;5041550;28;20457;-81
2023/04/09 05:05:53;;;;;;;24.37;16.43;;;3.80;99.90;;;;;;5038475;28;20454;-81
2023/04/09 05:08:20;;;;;;;23.20;16.93;;;3.80;99.90;;;;;;5020894;28;20457;-80
2023/04/09 05:10:46;;;;;;;29.03;17.97;;;3.80;99.90;;;;;;5028425;28;20513;-80
2023/04/09 05:13:15;;;;;;;32.80;19.10;;;3.80;99.90;;;;;;5038067;28;20463;-80
2023/04/09 05:15:42;;;;;;;27.60;17.57;;;3.70;99.90;;;;;;5032355;28;20460;-80
2023/04/09 05:18:09;;;;;;;26.47;18.70;;;3.70;99.90;;;;;;5025838;28;20958;-82
2023/04/09 05:20:36;;;;;;;28.20;18.50;;;3.70;99.90;;;;;;5031985;28;20578;-79
2023/04/09 05:23:03;;;;;;;30.17;18.90;;;3.70;99.90;;;;;;5017970;28;20480;-80
2023/04/09 05:25:30;;;;;;;27.50;18.20;;;3.70;99.90;;;;;;5017984;28;20456;-82
2023/04/09 05:27:57;;;;;;;24.17;16.90;;;3.70;99.90;;;;;;5021965;28;20450;-81
2023/04/09 05:30:25;;;;;;;29.73;18.20;;;3.80;99.90;;;;;;5020610;28;20567;-81
2023/04/09 05:32:52;;;;;;;27.00;18.97;;;3.70;99.90;;;;;;5017247;28;20458;-80
2023/04/09 05:35:18;;;;;;;26.23;18.03;;;3.80;99.90;;;;;;5023361;28;20460;-81
2023/04/09 05:37:45;;;;;;;28.60;17.60;;;3.90;99.90;;;;;;5019301;28;20426;-81
2023/04/09 05:40:13;;;;;;;32.03;18.60;;;3.90;99.90;;;;;;5018274;28;20588;-82
2023/04/09 05:42:40;;;;;;;25.40;19.13;;;4.00;99.90;;;;;;5019224;28;20457;-80
2023/04/09 05:45:08;;;;;;;30.30;19.17;;;4.10;99.90;;;;;;5020026;28;20462;-80
2023/04/09 05:47:36;;;;;;;26.77;19.80;;;4.10;99.90;;;;;;5033783;28;20489;-81
2023/04/09 05:50:04;;;;;;;33.57;20.63;;;4.20;99.90;;;;;;5040038;28;20520;-85
2023/04/09 05:52:31;;;;;;;33.90;20.63;;;4.20;99.90;;;;;;5028717;28;20462;-85
2023/04/09 05:54:57;;;;;;;29.50;21.67;;;4.20;99.90;;;;;;5028739;28;20541;-85
2023/04/09 05:57:24;;;;;;;32.63;22.07;;;4.30;99.90;;;;;;5031780;28;20458;-82
2023/04/09 05:59:51;;;;;;;27.10;20.10;;;4.30;99.90;;;;;;5034647;28;20584;-82
2023/04/09 06:02:18;;;;;;;33.63;21.03;;;4.30;99.90;;;;;;5024086;28;20516;-82
2023/04/09 06:04:46;;;;;;;27.43;20.20;;;4.40;99.90;;;;;;5009846;28;20569;-83
2023/04/09 06:07:13;;;;;;;32.90;19.77;;;4.50;99.90;;;;;;5031186;28;20428;-82
2023/04/09 06:09:40;;;;;;;31.97;19.33;;;4.50;99.90;;;;;;5025427;28;21033;-83
2023/04/09 06:12:06;;;;;;;37.10;24.37;;;4.60;99.90;;;;;;5017723;28;20454;-82
2023/04/09 06:14:33;;;;;;;32.73;21.40;;;4.60;99.90;;;;;;5014639;28;21021;-82
2023/04/09 06:17:00;;;;;;;29.37;22.10;;;4.60;99.90;;;;;;5022623;28;20446;-82
2023/04/09 06:19:27;;;;;;;29.33;18.27;;;4.70;99.90;;;;;;5022254;28;20452;-82
2023/04/09 06:21:55;;;;;;;27.67;18.80;;;4.80;99.90;;;;;;5021802;28;20465;-82
2023/04/09 06:24:22;;;;;;;27.20;18.43;;;4.90;99.90;;;;;;5022191;28;20489;-83
2023/04/09 06:26:49;;;;;;;29.20;19.87;;;4.90;99.90;;;;;;5029309;28;20433;-82
2023/04/09 06:29:16;;;;;;;25.50;18.87;;;5.00;99.90;;;;;;5020632;28;20489;-84
2023/04/09 06:31:43;;;;;;;28.27;18.60;;;5.10;99.90;;;;;;5019964;28;20502;-82
2023/04/09 06:34:09;;;;;;;31.00;19.93;;;5.20;99.90;;;;;;5023962;28;20450;-83
2023/04/09 06:36:39;;;;;;;28.83;19.67;;;5.30;99.90;;;;;;5015139;28;20466;-82
2023/04/09 06:39:07;;;;;;;24.00;17.90;;;5.30;99.90;;;;;;5021384;28;20484;-83
2023/04/09 06:41:34;;;;;;;23.23;16.80;;;5.40;99.90;;;;;;5012093;28;20541;-82
2023/04/09 06:44:01;;;;;;;23.23;17.50;;;5.40;99.90;;;;;;5023443;28;21054;-83
2023/04/09 06:46:28;;;;;;;29.77;18.70;;;5.60;99.90;;;;;;5020045;28;20463;-82
2023/04/09 06:48:55;;;;;;;26.57;16.80;;;5.70;99.90;;;;;;5029365;28;21025;-83
2023/04/09 06:51:22;;;;;;;23.07;17.23;;;5.80;99.90;;;;;;5018964;28;20453;-82
2023/04/09 06:53:48;;;;;;;30.50;18.43;;;5.90;99.90;;;;;;5017860;28;20454;-82
2023/04/09 06:56:17;;;;;;;23.50;17.73;;;6.00;99.90;;;;;;5017160;28;20896;-83
2023/04/09 06:58:43;;;;;;;22.40;16.60;;;6.00;99.90;;;;;;5012903;28;20551;-81
2023/04/09 07:01:10;;;;;;;22.90;16.50;;;6.20;99.90;;;;;;5017502;28;20467;-81
2023/04/09 07:03:37;;;;;;;22.77;15.63;;;6.20;99.90;;;;;;5019818;28;20544;-81
2023/04/09 07:06:04;;;;;;;26.87;17.93;;;6.30;99.90;;;;;;5017729;28;21031;-82
2023/04/09 07:08:31;;;;;;;22.57;15.30;;;6.30;99.90;;;;;;5017797;28;20458;-81
2023/04/09 07:10:57;;;;;;;24.93;15.63;;;6.50;99.90;;;;;;5018031;28;20539;-82
2023/04/09 07:13:26;;;;;;;21.93;15.50;;;6.60;99.90;;;;;;5017081;28;20452;-82
2023/04/09 07:15:52;;;;;;;21.07;15.67;;;6.80;99.90;;;;;;5019292;28;20460;-82
2023/04/09 07:18:19;;;;;;;19.87;14.13;;;6.90;99.90;;;;;;5017644;28;20895;-82
2023/04/09 07:20:46;;;;;;;22.87;15.70;;;7.00;99.90;;;;;;5027703;28;21015;-83
2023/04/09 07:23:13;;;;;;;22.70;16.07;;;7.20;99.90;;;;;;5024331;28;20460;-83
2023/04/09 07:25:40;;;;;;;19.10;13.50;;;7.40;99.90;;;;;;5019453;28;20471;-81
2023/04/09 07:28:07;;;;;;;19.43;14.33;;;7.70;99.90;;;;;;5038647;28;20474;-83
2023/04/09 07:30:35;;;;;;;22.83;16.40;;;7.90;99.90;;;;;;5025319;28;20552;-83
2023/04/09 07:33:02;;;;;;;18.60;14.00;;;8.00;99.90;;;;;;5009833;28;20455;-81
2023/04/09 07:35:29;;;;;;;20.70;15.63;;;8.10;99.90;;;;;;5016531;28;20518;-83
2023/04/09 07:37:56;;;;;;;19.87;14.13;;;8.20;99.90;;;;;;5036498;28;20484;-82
2023/04/09 07:40:23;;;;;;;21.83;14.77;;;8.40;99.90;;;;;;5027328;28;20492;-81
2023/04/09 07:42:49;;;;;;;18.13;13.77;;;8.60;99.90;;;;;;5017469;28;20469;-83
2023/04/09 07:45:17;;;;;;;16.40;12.97;;;9.00;99.90;;;;;;5035752;28;20449;-83
2023/04/09 07:47:45;;;;;;;15.73;12.30;;;9.30;10.90;;;;;;5034905;28;20614;-83
2023/04/09 07:50:12;;;;;;;16.73;12.70;;;9.50;7.10;;;;;;5036525;28;20513;-82
2023/04/09 07:52:38;;;;;;;17.70;11.70;;;9.80;28.20;;;;;;5035351;28;20830;-81
2023/04/09 07:55:06;;;;;;;17.90;12.17;;;10.10;1.00;;;;;;5017349;28;20535;-82
2023/04/09 07:57:33;;;;;;;16.90;11.37;;;10.30;1.00;;;;;;5017234;28;20853;-82
2023/04/09 08:00:00;;;;;;;19.70;12.80;;;10.50;1.00;;;;;;5033790;28;20550;-81
2023/04/09 08:02:27;;;;;;;19.33;11.40;;;10.60;99.90;;;;;;5034780;28;20463;-82
2023/04/09 08:04:55;;;;;;;14.67;11.43;;;10.70;99.90;;;;;;5020031;28;20489;-82
2023/04/09 08:07:22;;;;;;;13.20;9.73;;;10.90;1.00;;;;;;5018522;28;20462;-82
2023/04/09 08:09:49;;;;;;;15.87;10.40;;;11.00;1.00;;;;;;5031585;28;20465;-82
2023/04/09 08:12:16;;;;;;;15.97;9.80;;;11.30;99.90;;;;;;5035188;28;20452;-82
2023/04/09 08:14:43;;;;;;;17.27;11.87;;;11.40;1.00;;;;;;5014532;28;20497;-83
2023/04/09 08:17:10;;;;;;;13.13;10.00;;;11.50;99.90;;;;;;4998136;28;20549;-82
2023/04/09 08:19:37;;;;;;;16.33;10.90;;;12.00;1.00;;;;;;5034862;28;20561;-82
2023/04/09 08:22:06;;;;;;;13.83;10.17;;;12.60;1.00;;;;;;5036752;28;20544;-82
2023/04/09 08:24:33;;;;;;;12.20;8.90;;;13.50;1.00;;;;;;5018675;28;20464;-82
2023/04/09 08:27:00;;;;;;;10.73;8.70;;;14.20;1.00;;;;;;5017148;28;20460;-82
2023/04/09 08:29:27;;;;;;;11.13;7.50;;;14.90;1.00;;;;;;5033646;28;20486;-84
2023/04/09 08:31:54;;;;;;;10.77;8.50;;;16.30;1.00;;;;;;5036312;28;20469;-83
2023/04/09 08:34:21;;;;;;;12.03;8.83;;;17.10;1.00;;;;;;5019140;28;20596;-83
2023/04/09 08:36:48;;;;;;;12.80;9.17;;;18.30;1.00;;;;;;5008275;28;20546;-84
2023/04/09 08:39:19;;;;;;;12.13;8.80;;;18.50;1.00;;;;;;5039961;28;20461;-82
2023/04/09 08:41:46;;;;;;;10.47;7.67;;;19.10;1.00;;;;;;5035861;28;20457;-83
2023/04/09 08:44:13;;;;;;;10.10;7.87;;;19.70;1.00;;;;;;5019143;28;20875;-83
2023/04/09 08:46:40;;;;;;;9.10;7.63;;;20.30;1.00;;;;;;5021462;28;20493;-82
2023/04/09 08:49:09;;;;;;;9.33;8.07;;;20.40;1.00;;;;;;5040212;28;20549;-84
2023/04/09 08:51:35;;;;;;;9.47;7.50;;;21.10;1.00;;;;;;5038773;28;20452;-82
2023/04/09 08:54:03;;;;;;;8.83;7.40;;;21.80;1.00;;;;;;5000672;28;20500;-84
2023/04/09 08:56:31;;;;;;;9.50;7.50;;;22.20;1.00;;;;;;5001396;28;21129;-83
2023/04/09 08:58:58;;;;;;;9.70;7.80;;;22.60;1.00;;;;;;5038860;28;20953;-83
2023/04/09 09:01:26;;;;;;;9.80;8.60;;;23.50;1.00;;;;;;5037790;28;20481;-82
2023/04/09 09:03:56;;;;;;;10.70;8.10;;;24.00;1.00;;;;;;5040977;28;20448;-83
2023/04/09 09:06:24;;;;;;;9.67;6.87;;;24.50;99.90;;;;;;5029600;28;20457;-82
2023/04/09 09:09:04;;;;;;;11.30;8.40;;;25.20;99.90;;;;;;5020439;28;20461;-83
2023/04/09 09:11:33;;;;;;;7.70;6.63;;;25.70;99.90;;;;;;5027678;28;20483;-82
2023/04/09 09:14:04;;;;;;;9.10;7.17;;;25.50;99.90;;;;;;5038357;28;20983;-82
2023/04/09 09:16:33;;;;;;;9.10;8.03;;;25.80;99.90;;;;;;5015438;28;20546;-83
2023/04/09 09:19:00;;;;;;;9.50;7.00;;;25.50;99.90;;;;;;4999610;28;20462;-80
2023/04/09 09:21:28;;;;;;;9.33;7.50;;;25.70;99.90;;;;;;5008629;28;20508;-85
2023/04/09 09:23:56;;;;;;;9.30;8.40;;;26.40;99.90;;;;;;5019623;28;20453;-83
2023/04/09 09:26:24;;;;;;;9.27;8.27;;;27.10;99.90;;;;;;5027457;28;20456;-81
2023/04/09 09:28:53;;;;;;;8.87;7.53;;;25.80;99.90;;;;;;5037431;28;20453;-83
2023/04/09 09:31:21;;;;;;;9.80;8.00;;;24.90;99.90;;;;;;5029281;28;20480;-83
2023/04/09 09:33:49;;;;;;;9.03;7.43;;;24.00;99.90;;;;;;5018400;28;20460;-84
2023/04/09 09:36:30;;;;;;;7.47;6.70;;;23.60;99.90;;;;;;5017938;28;20458;-84
2023/04/09 09:39:00;;;;;;;7.90;6.27;;;24.70;99.90;;;;;;5035561;28;20449;-83
2023/04/09 09:41:27;;;;;;;8.70;7.80;;;25.30;99.90;;;;;;5029597;28;20489;-82
2023/04/09 09:43:56;;;;;;;8.20;7.30;;;26.10;99.90;;;;;;5018048;28;20464;-84
2023/04/09 09:46:25;;;;;;;8.93;7.43;;;27.30;99.90;;;;;;5023106;28;20531;-83
2023/04/09 09:48:53;;;;;;;7.70;7.00;;;28.00;99.90;;;;;;5037981;28;20536;-82
2023/04/09 09:51:22;;;;;;;7.30;6.40;;;27.00;99.90;;;;;;5051015;22;20507;-77
2023/04/09 09:53:51;;;;;;;7.00;5.90;;;26.20;99.90;;;;;;5014814;28;20528;-76
2023/04/09 09:56:21;;;;;;;7.87;7.07;;;27.20;99.90;;;;;;5025690;28;20994;-77
2023/04/09 09:58:53;;;;;;;6.53;5.83;;;27.80;99.90;;;;;;5008955;28;20598;-75
2023/04/09 10:01:24;;;;;;;6.40;5.80;;;28.10;99.90;;;;;;5013540;28;20959;-75
2023/04/09 10:03:52;;;;;;;6.33;5.63;;;28.70;99.90;;;;;;5013515;28;20445;-75
2023/04/09 10:06:20;;;;;;;7.20;6.50;;;28.90;99.90;;;;;;5013092;28;20453;-77
2023/04/09 10:08:48;;;;;;;7.67;6.90;;;29.20;99.90;;;;;;5022367;28;20518;-75
2023/04/09 10:14:32;;;;;;;7.70;6.90;;;26.70;99.90;;;;;;5019617;28;20470;-77
2023/04/09 10:17:00;;;;;;;8.00;6.97;;;24.50;99.90;;;;;;5056659;28;20443;-77
2023/04/09 10:19:27;;;;;;;8.00;6.73;;;23.40;99.90;;;;;;5054867;28;20486;-77
2023/04/09 10:22:04;;;;;;;7.60;6.67;;;24.20;99.90;;;;;;5033539;28;20492;-78
2023/04/09 10:24:33;;;;;;;7.80;7.00;;;24.40;99.90;;;;;;5035950;28;20547;-79
2023/04/09 10:27:09;;;;;;;5.73;5.13;;;24.60;99.90;;;;;;5044876;28;20471;-77
2023/04/09 10:29:43;;;;;;;7.03;5.37;;;24.10;99.90;;;;;;5053157;28;20531;-77
2023/04/09 10:32:12;;;;;;;7.53;6.10;;;25.10;99.90;;;;;;5036220;28;20495;-77
2023/04/09 10:34:42;;;;;;;6.53;5.70;;;24.60;99.90;;;;;;5033649;28;20464;-75
2023/04/09 10:37:13;;;;;;;6.60;5.80;;;22.00;99.90;;;;;;5033267;28;20449;-78
2023/04/09 10:39:43;;;;;;;7.67;5.40;;;23.20;99.90;;;;;;5033264;28;20455;-75
2023/04/09 10:42:14;;;;;;;6.10;5.10;;;24.40;99.90;;;;;;5033129;28;20992;-74
2023/04/09 10:44:44;;;;;;;8.50;5.67;;;25.50;99.90;;;;;;5034215;28;20471;-75
2023/04/09 10:47:30;;;;;;;6.80;5.60;;;26.90;99.90;;;;;;5033256;28;20556;-75
2023/04/09 10:49:57;;;;;;;7.33;5.70;;;26.50;99.90;;;;;;5033609;28;20556;-75
2023/04/09 10:52:30;;;;;;;6.60;5.90;;;24.40;99.90;;;;;;5032750;28;20452;-74
2023/04/09 10:54:57;;;;;;;6.47;5.07;;;22.40;99.90;;;;;;5034380;28;20847;-75
2023/04/09 10:57:25;;;;;;;5.90;5.33;;;22.20;99.90;;;;;;5033110;28;20491;-76
2023/04/09 10:59:53;;;;;;;5.83;5.03;;;21.80;99.90;;;;;;5031109;28;20481;-76
2023/04/09 11:03:10;;;;;;;8.07;5.73;;;21.40;99.90;;;;;;5032553;28;20595;-76
2023/04/09 11:05:38;;;;;;;7.33;6.50;;;21.10;99.90;;;;;;5028880;28;20463;-77
2023/04/09 11:08:08;;;;;;;9.67;6.77;;;21.10;99.90;;;;;;5032982;28;20452;-75
2023/04/09 11:14:16;;;;;;;6.40;5.40;;;21.70;99.90;;;;;;4911440;29;20545;-76
2023/04/09 11:17:09;;;;;;;6.90;6.03;;;24.30;99.90;;;;;;4971565;28;20442;-75
2023/04/09 11:32:28;;;;;;;6.70;5.97;;;22.50;99.90;;;;;;5068979;22;20538;-75
2023/04/09 11:34:55;;;;;;;6.00;5.03;;;21.90;99.90;;;;;;5020405;28;20440;-78
2023/04/09 11:37:25;;;;;;;6.13;5.53;;;21.50;99.90;;;;;;5033208;28;20448;-77
2023/04/09 11:49:52;;;;;;;5.90;5.30;;;23.80;99.90;;;;;;5013564;28;20522;-75
2023/04/09 11:52:21;;;;;;;6.90;5.77;;;26.00;99.90;;;;;;5051880;28;20486;-75
2023/04/09 11:54:50;;;;;;;6.53;5.57;;;26.60;99.90;;;;;;5051453;28;20452;-75
2023/04/09 11:57:17;;;;;;;6.33;5.63;;;26.20;99.90;;;;;;5052199;28;20517;-76
2023/04/09 11:59:44;;;;;;;6.77;6.07;;;25.40;99.90;;;;;;5044115;28;20468;-76
2023/04/09 12:02:12;;;;;;;6.27;5.17;;;24.20;99.90;;;;;;5036264;28;20490;-76
2023/04/09 12:04:52;;;;;;;6.30;5.70;;;24.30;99.90;;;;;;5052072;28;20462;-76
2023/04/09 12:07:19;;;;;;;6.73;5.87;;;23.10;99.90;;;;;;5046234;28;20455;-77
2023/04/09 12:09:48;;;;;;;5.60;4.60;;;22.50;99.90;;;;;;5027897;28;20866;-77
2023/04/09 12:12:19;;;;;;;7.30;6.60;;;24.90;99.90;;;;;;5039992;28;20872;-75
2023/04/09 12:14:50;;;;;;;7.03;6.00;;;25.60;99.90;;;;;;5026490;28;20464;-76
2023/04/09 12:17:20;;;;;;;5.73;5.13;;;26.80;99.90;;;;;;5032308;28;20558;-76
2023/04/09 12:19:49;;;;;;;6.60;6.00;;;29.00;99.90;;;;;;5021918;28;20456;-75
2023/04/09 12:22:17;;;;;;;5.70;5.20;;;30.80;99.90;;;;;;5049811;28;20511;-76
2023/04/09 12:24:44;;;;;;;6.97;6.37;;;31.10;99.90;;;;;;5038743;28;20535;-76
2023/04/09 12:27:11;;;;;;;6.33;5.67;;;28.10;99.90;;;;;;5049084;28;20543;-75
2023/04/09 12:29:37;;;;;;;6.07;5.47;;;26.80;99.90;;;;;;5040177;28;20535;-77
2023/04/09 12:32:11;;;;;;;6.87;6.17;;;25.90;99.90;;;;;;5029494;28;20477;-76
2023/04/09 12:34:38;;;;;;;6.53;5.93;;;25.80;99.90;;;;;;5027365;28;20453;-76
2023/04/09 12:37:05;;;;;;;6.00;5.40;;;24.20;99.90;;;;;;5023260;28;20516;-76
2023/04/09 12:39:33;;;;;;;6.60;5.70;;;23.90;99.90;;;;;;5017483;28;20452;-76
2023/04/09 12:42:00;;;;;;;6.73;6.03;;;22.60;99.90;;;;;;5050766;28;20488;-78
2023/04/09 12:44:27;;;;;;;6.90;6.20;;;22.10;99.90;;;;;;5042017;28;20548;-76
2023/04/09 12:46:54;;;;;;;7.50;6.20;;;21.40;99.90;;;;;;5031595;28;20455;-76
2023/04/09 12:49:21;;;;;;;6.47;5.83;;;21.20;99.90;;;;;;5038744;28;20502;-76
2023/04/09 12:51:48;;;;;;;6.33;5.70;;;21.10;99.90;;;;;;5041661;28;20482;-76
2023/04/09 12:54:15;;;;;;;5.83;5.23;;;22.60;99.90;;;;;;5024578;28;21029;-75
2023/04/09 12:56:43;;;;;;;6.77;5.83;;;24.50;99.90;;;;;;5050840;28;20436;-75
2023/04/09 12:59:12;;;;;;;7.70;6.00;;;23.60;99.90;;;;;;5043428;28;20460;-75
2023/04/09 13:01:41;;;;;;;6.60;5.90;;;22.90;99.90;;;;;;5044259;28;20572;-75
2023/04/09 13:04:08;;;;;;;7.60;5.87;;;22.30;99.90;;;;;;5020008;28;20444;-75
2023/04/09 13:06:34;;;;;;;6.03;5.33;;;22.10;99.90;;;;;;5051748;28;20552;-75
2023/04/09 13:09:01;;;;;;;6.50;5.80;;;22.70;99.90;;;;;;5045294;28;20462;-76
2023/04/09 13:11:32;;;;;;;6.47;5.87;;;23.40;99.90;;;;;;5043088;22;20532;-75
2023/04/09 13:14:00;;;;;;;7.13;6.43;;;22.90;99.90;;;;;;5041503;28;20458;-75